sensor_id;sensor_type;location;lat;lon;timestamp;pressure;altitude;pressure_sealevel;temperature;humidity
26376;BME280;30544;42.196;24.336;2022-07-26T00:02:19;98801.44;;;25.46;60.22
26376;BME280;30544;42.196;24.336;2022-07-26T00:04:47;98797.78;;;25.33;60.25
26376;BME280;30544;42.196;24.336;2022-07-26T00:07:14;98801.81;;;25.20;60.88
26376;BME280;30544;42.196;24.336;2022-07-26T00:09:41;98807.47;;;25.44;60.19
26376;BME280;30544;42.196;24.336;2022-07-26T00:12:08;98800.16;;;25.43;59.98
26376;BME280;30544;42.196;24.336;2022-07-26T00:14:35;98803.09;;;25.59;59.47
26376;BME280;30544;42.196;24.336;2022-07-26T00:17:02;98805.47;;;25.33;60.16
26376;BME280;30544;42.196;24.336;2022-07-26T00:19:30;98803.94;;;25.23;60.51
26376;BME280;30544;42.196;24.336;2022-07-26T00:21:58;98797.31;;;25.31;60.23
26376;BME280;30544;42.196;24.336;2022-07-26T00:24:42;98796.13;;;25.32;60.20
26376;BME280;30544;42.196;24.336;2022-07-26T00:27:09;98789.03;;;25.38;59.98
26376;BME280;30544;42.196;24.336;2022-07-26T00:29:36;98799.94;;;25.24;60.40
26376;BME280;30544;42.196;24.336;2022-07-26T00:32:03;98797.69;;;25.05;61.05
26376;BME280;30544;42.196;24.336;2022-07-26T00:34:30;98794.13;;;25.08;60.95
26376;BME280;30544;42.196;24.336;2022-07-26T00:36:58;98796.84;;;25.05;60.95
26376;BME280;30544;42.196;24.336;2022-07-26T00:39:25;98790.34;;;25.04;61.01
26376;BME280;30544;42.196;24.336;2022-07-26T00:41:53;98799.91;;;25.12;61.29
26376;BME280;30544;42.196;24.336;2022-07-26T00:44:20;98802.94;;;24.95;61.48
26376;BME280;30544;42.196;24.336;2022-07-26T00:46:47;98809.06;;;24.84;61.74
26376;BME280;30544;42.196;24.336;2022-07-26T00:49:13;98806.94;;;24.81;61.74
26376;BME280;30544;42.196;24.336;2022-07-26T00:51:40;98809.28;;;24.67;62.61
26376;BME280;30544;42.196;24.336;2022-07-26T00:54:09;98810.81;;;24.65;62.86
26376;BME280;30544;42.196;24.336;2022-07-26T00:56:36;98808.91;;;24.69;62.88
26376;BME280;30544;42.196;24.336;2022-07-26T00:59:04;98803.25;;;24.69;62.63
26376;BME280;30544;42.196;24.336;2022-07-26T01:01:31;98796.03;;;24.59;62.92
26376;BME280;30544;42.196;24.336;2022-07-26T01:03:58;98805.44;;;24.51;63.21
26376;BME280;30544;42.196;24.336;2022-07-26T01:06:25;98795.88;;;24.43;63.86
26376;BME280;30544;42.196;24.336;2022-07-26T01:08:51;98798.59;;;24.40;63.77
26376;BME280;30544;42.196;24.336;2022-07-26T01:11:20;98791.66;;;24.28;64.22
26376;BME280;30544;42.196;24.336;2022-07-26T01:13:47;98784.63;;;24.35;63.71
26376;BME280;30544;42.196;24.336;2022-07-26T01:16:14;98793.03;;;24.43;63.94
26376;BME280;30544;42.196;24.336;2022-07-26T01:18:42;98792.16;;;24.30;64.15
26376;BME280;30544;42.196;24.336;2022-07-26T01:21:10;98788.78;;;24.16;64.58
26376;BME280;30544;42.196;24.336;2022-07-26T01:23:38;98786.91;;;24.20;64.44
26376;BME280;30544;42.196;24.336;2022-07-26T01:26:05;98781.22;;;24.41;63.84
26376;BME280;30544;42.196;24.336;2022-07-26T01:28:35;98779.25;;;24.54;63.46
26376;BME280;30544;42.196;24.336;2022-07-26T01:31:03;98788.19;;;24.44;63.76
26376;BME280;30544;42.196;24.336;2022-07-26T01:33:30;98789.34;;;24.10;64.99
26376;BME280;30544;42.196;24.336;2022-07-26T01:35:57;98790.41;;;24.05;65.16
26376;BME280;30544;42.196;24.336;2022-07-26T01:38:25;98788.38;;;23.85;66.26
26376;BME280;30544;42.196;24.336;2022-07-26T01:40:53;98793.28;;;23.96;65.83
26376;BME280;30544;42.196;24.336;2022-07-26T01:43:20;98784.41;;;23.86;66.25
26376;BME280;30544;42.196;24.336;2022-07-26T01:45:47;98788.88;;;23.87;66.31
26376;BME280;30544;42.196;24.336;2022-07-26T01:48:14;98781.84;;;23.93;65.58
26376;BME280;30544;42.196;24.336;2022-07-26T01:50:40;98783.34;;;23.90;66.21
26376;BME280;30544;42.196;24.336;2022-07-26T01:53:07;98784.56;;;24.01;65.84
26376;BME280;30544;42.196;24.336;2022-07-26T01:55:34;98790.44;;;23.96;65.79
26376;BME280;30544;42.196;24.336;2022-07-26T01:58:03;98783.41;;;23.82;66.55
26376;BME280;30544;42.196;24.336;2022-07-26T02:00:31;98775.28;;;23.59;66.59
26376;BME280;30544;42.196;24.336;2022-07-26T02:02:57;98781.59;;;23.56;67.09
26376;BME280;30544;42.196;24.336;2022-07-26T02:05:24;98783.31;;;23.49;67.50
26376;BME280;30544;42.196;24.336;2022-07-26T02:07:51;98780.81;;;23.47;66.98
26376;BME280;30544;42.196;24.336;2022-07-26T02:10:18;98790.47;;;23.46;67.19
26376;BME280;30544;42.196;24.336;2022-07-26T02:12:46;98782.19;;;23.70;66.39
26376;BME280;30544;42.196;24.336;2022-07-26T02:15:14;98775.03;;;23.44;66.64
26376;BME280;30544;42.196;24.336;2022-07-26T02:17:41;98773.63;;;23.50;66.35
26376;BME280;30544;42.196;24.336;2022-07-26T02:20:09;98776.88;;;23.69;66.19
26376;BME280;30544;42.196;24.336;2022-07-26T02:22:36;98768.97;;;23.54;66.25
26376;BME280;30544;42.196;24.336;2022-07-26T02:25:03;98773.34;;;23.72;65.74
26376;BME280;30544;42.196;24.336;2022-07-26T02:27:30;98777.28;;;23.50;65.73
26376;BME280;30544;42.196;24.336;2022-07-26T02:29:57;98789.03;;;23.40;65.95
26376;BME280;30544;42.196;24.336;2022-07-26T02:32:25;98773.25;;;23.09;67.06
26376;BME280;30544;42.196;24.336;2022-07-26T02:34:52;98775.16;;;23.18;66.57
26376;BME280;30544;42.196;24.336;2022-07-26T02:37:19;98782.81;;;22.79;68.08
26376;BME280;30544;42.196;24.336;2022-07-26T02:39:46;98779.53;;;22.86;68.20
26376;BME280;30544;42.196;24.336;2022-07-26T02:42:12;98785.75;;;23.00;67.64
26376;BME280;30544;42.196;24.336;2022-07-26T02:44:40;98787.56;;;22.58;68.78
26376;BME280;30544;42.196;24.336;2022-07-26T02:47:07;98779.94;;;22.49;69.46
26376;BME280;30544;42.196;24.336;2022-07-26T02:49:35;98793.75;;;22.42;69.58
26376;BME280;30544;42.196;24.336;2022-07-26T02:52:02;98783.31;;;22.26;70.41
26376;BME280;30544;42.196;24.336;2022-07-26T02:54:29;98790.25;;;22.45;69.89
26376;BME280;30544;42.196;24.336;2022-07-26T02:56:56;98790.09;;;22.42;69.98
26376;BME280;30544;42.196;24.336;2022-07-26T02:59:22;98797.44;;;22.34;69.56
26376;BME280;30544;42.196;24.336;2022-07-26T03:01:49;98794.78;;;22.29;70.01
26376;BME280;30544;42.196;24.336;2022-07-26T03:04:16;98806.44;;;22.10;71.09
26376;BME280;30544;42.196;24.336;2022-07-26T03:06:44;98796.31;;;22.18;70.79
26376;BME280;30544;42.196;24.336;2022-07-26T03:09:11;98810.72;;;22.16;70.50
26376;BME280;30544;42.196;24.336;2022-07-26T03:11:38;98792.81;;;22.04;70.92
26376;BME280;30544;42.196;24.336;2022-07-26T03:14:05;98805.59;;;22.01;71.34
26376;BME280;30544;42.196;24.336;2022-07-26T03:16:32;98805.25;;;22.03;70.42
26376;BME280;30544;42.196;24.336;2022-07-26T03:18:59;98801.13;;;22.09;70.61
26376;BME280;30544;42.196;24.336;2022-07-26T03:21:26;98801.63;;;22.11;70.19
26376;BME280;30544;42.196;24.336;2022-07-26T03:23:54;98807.06;;;21.99;70.96
26376;BME280;30544;42.196;24.336;2022-07-26T03:26:21;98815.69;;;21.76;72.00
26376;BME280;30544;42.196;24.336;2022-07-26T03:28:47;98820.53;;;21.84;71.02
26376;BME280;30544;42.196;24.336;2022-07-26T03:31:14;98806.75;;;21.91;71.05
26376;BME280;30544;42.196;24.336;2022-07-26T03:33:41;98831.00;;;22.01;71.05
26376;BME280;30544;42.196;24.336;2022-07-26T03:36:08;98823.88;;;22.12;70.66
26376;BME280;30544;42.196;24.336;2022-07-26T03:38:36;98827.66;;;22.51;69.90
26376;BME280;30544;42.196;24.336;2022-07-26T03:41:04;98825.66;;;22.51;69.33
26376;BME280;30544;42.196;24.336;2022-07-26T03:43:31;98828.38;;;22.77;68.23
26376;BME280;30544;42.196;24.336;2022-07-26T03:45:58;98829.28;;;22.61;69.16
26376;BME280;30544;42.196;24.336;2022-07-26T03:48:25;98833.22;;;22.77;68.57
26376;BME280;30544;42.196;24.336;2022-07-26T03:50:52;98837.19;;;22.93;69.29
26376;BME280;30544;42.196;24.336;2022-07-26T03:53:19;98824.97;;;23.10;68.01
26376;BME280;30544;42.196;24.336;2022-07-26T03:55:46;98829.09;;;23.13;68.20
26376;BME280;30544;42.196;24.336;2022-07-26T03:58:31;98832.06;;;23.54;66.11
26376;BME280;30544;42.196;24.336;2022-07-26T04:00:58;98829.88;;;23.60;65.59
26376;BME280;30544;42.196;24.336;2022-07-26T04:03:25;98832.44;;;23.94;65.05
26376;BME280;30544;42.196;24.336;2022-07-26T04:05:51;98822.63;;;24.34;63.76
26376;BME280;30544;42.196;24.336;2022-07-26T04:08:18;98824.56;;;24.00;64.22
26376;BME280;30544;42.196;24.336;2022-07-26T04:10:46;98822.91;;;24.41;62.73
26376;BME280;30544;42.196;24.336;2022-07-26T04:13:15;98824.38;;;24.59;62.17
26376;BME280;30544;42.196;24.336;2022-07-26T04:15:43;98821.13;;;24.69;62.12
26376;BME280;30544;42.196;24.336;2022-07-26T04:18:10;98813.47;;;24.94;61.51
26376;BME280;30544;42.196;24.336;2022-07-26T04:20:38;98816.72;;;25.05;61.37
26376;BME280;30544;42.196;24.336;2022-07-26T04:23:05;98810.91;;;24.68;61.53
26376;BME280;30544;42.196;24.336;2022-07-26T04:25:32;98805.59;;;24.67;61.72
26376;BME280;30544;42.196;24.336;2022-07-26T04:27:59;98807.75;;;24.70;61.42
26376;BME280;30544;42.196;24.336;2022-07-26T04:30:26;98815.38;;;25.02;60.70
26376;BME280;30544;42.196;24.336;2022-07-26T04:32:54;98813.63;;;25.10;60.62
26376;BME280;30544;42.196;24.336;2022-07-26T04:35:21;98814.44;;;25.47;59.24
26376;BME280;30544;42.196;24.336;2022-07-26T04:37:48;98806.19;;;25.42;60.13
26376;BME280;30544;42.196;24.336;2022-07-26T04:40:18;98805.56;;;25.61;58.98
26376;BME280;30544;42.196;24.336;2022-07-26T04:42:46;98810.31;;;25.44;60.14
26376;BME280;30544;42.196;24.336;2022-07-26T04:45:13;98819.31;;;25.71;58.80
26376;BME280;30544;42.196;24.336;2022-07-26T04:47:40;98809.03;;;26.06;58.39
26376;BME280;30544;42.196;24.336;2022-07-26T04:50:09;98812.19;;;25.77;58.35
26376;BME280;30544;42.196;24.336;2022-07-26T04:52:37;98813.13;;;26.21;57.82
26376;BME280;30544;42.196;24.336;2022-07-26T04:55:04;98820.94;;;26.24;56.94
26376;BME280;30544;42.196;24.336;2022-07-26T04:57:31;98808.91;;;26.43;56.07
26376;BME280;30544;42.196;24.336;2022-07-26T04:59:58;98805.25;;;26.43;56.47
26376;BME280;30544;42.196;24.336;2022-07-26T05:02:26;98808.66;;;26.48;57.21
26376;BME280;30544;42.196;24.336;2022-07-26T05:04:52;98812.19;;;26.73;56.25
26376;BME280;30544;42.196;24.336;2022-07-26T05:07:21;98816.63;;;27.02;55.13
26376;BME280;30544;42.196;24.336;2022-07-26T05:09:47;98814.72;;;27.22;54.72
26376;BME280;30544;42.196;24.336;2022-07-26T05:12:14;98810.25;;;27.05;54.73
26376;BME280;30544;42.196;24.336;2022-07-26T05:14:41;98797.06;;;27.48;54.45
26376;BME280;30544;42.196;24.336;2022-07-26T05:17:08;98804.88;;;27.86;52.87
26376;BME280;30544;42.196;24.336;2022-07-26T05:19:35;98808.53;;;27.67;53.61
26376;BME280;30544;42.196;24.336;2022-07-26T05:22:02;98801.94;;;27.63;53.22
26376;BME280;30544;42.196;24.336;2022-07-26T05:24:31;98797.72;;;27.92;52.32
26376;BME280;30544;42.196;24.336;2022-07-26T05:26:57;98800.63;;;27.61;52.80
26376;BME280;30544;42.196;24.336;2022-07-26T05:29:24;98800.59;;;27.25;53.60
26376;BME280;30544;42.196;24.336;2022-07-26T05:31:51;98794.03;;;27.56;53.44
26376;BME280;30544;42.196;24.336;2022-07-26T05:34:18;98803.16;;;27.81;53.14
26376;BME280;30544;42.196;24.336;2022-07-26T05:36:44;98801.19;;;27.66;52.89
26376;BME280;30544;42.196;24.336;2022-07-26T05:39:11;98801.63;;;27.68;52.67
26376;BME280;30544;42.196;24.336;2022-07-26T05:41:39;98791.47;;;27.86;52.68
26376;BME280;30544;42.196;24.336;2022-07-26T05:44:06;98801.25;;;28.24;52.52
26376;BME280;30544;42.196;24.336;2022-07-26T05:46:34;98795.69;;;28.12;51.33
26376;BME280;30544;42.196;24.336;2022-07-26T05:49:01;98799.03;;;27.79;52.58
26376;BME280;30544;42.196;24.336;2022-07-26T05:51:28;98795.34;;;27.27;54.24
26376;BME280;30544;42.196;24.336;2022-07-26T05:53:55;98795.50;;;27.35;53.94
26376;BME280;30544;42.196;24.336;2022-07-26T05:56:22;98801.13;;;27.82;53.24
26376;BME280;30544;42.196;24.336;2022-07-26T05:58:50;98796.31;;;27.67;53.81
26376;BME280;30544;42.196;24.336;2022-07-26T06:01:17;98793.97;;;28.07;52.20
26376;BME280;30544;42.196;24.336;2022-07-26T06:03:44;98795.22;;;28.68;50.61
26376;BME280;30544;42.196;24.336;2022-07-26T06:06:11;98792.69;;;28.63;50.68
26376;BME280;30544;42.196;24.336;2022-07-26T06:08:37;98795.09;;;29.26;49.47
26376;BME280;30544;42.196;24.336;2022-07-26T06:11:05;98798.06;;;28.87;49.93
26376;BME280;30544;42.196;24.336;2022-07-26T06:13:32;98791.81;;;28.59;49.95
26376;BME280;30544;42.196;24.336;2022-07-26T06:16:00;98786.97;;;28.63;49.50
26376;BME280;30544;42.196;24.336;2022-07-26T06:18:26;98790.22;;;28.23;50.76
26376;BME280;30544;42.196;24.336;2022-07-26T06:20:54;98784.75;;;28.95;49.91
26376;BME280;30544;42.196;24.336;2022-07-26T06:23:21;98781.59;;;28.81;49.84
26376;BME280;30544;42.196;24.336;2022-07-26T06:25:48;98784.25;;;28.89;49.95
26376;BME280;30544;42.196;24.336;2022-07-26T06:28:15;98762.81;;;29.75;48.30
26376;BME280;30544;42.196;24.336;2022-07-26T06:30:43;98768.03;;;29.99;48.27
26376;BME280;30544;42.196;24.336;2022-07-26T06:33:11;98770.81;;;30.22;46.84
26376;BME280;30544;42.196;24.336;2022-07-26T06:35:39;98768.84;;;29.70;46.54
26376;BME280;30544;42.196;24.336;2022-07-26T06:38:06;98766.78;;;29.40;47.84
26376;BME280;30544;42.196;24.336;2022-07-26T06:40:33;98757.81;;;29.68;46.11
26376;BME280;30544;42.196;24.336;2022-07-26T06:43:01;98750.50;;;29.71;47.35
26376;BME280;30544;42.196;24.336;2022-07-26T06:45:28;98756.13;;;29.93;46.76
26376;BME280;30544;42.196;24.336;2022-07-26T06:47:55;98755.53;;;30.07;46.25
26376;BME280;30544;42.196;24.336;2022-07-26T06:50:23;98759.75;;;29.60;48.33
26376;BME280;30544;42.196;24.336;2022-07-26T06:52:50;98757.84;;;29.19;48.03
26376;BME280;30544;42.196;24.336;2022-07-26T06:55:17;98757.25;;;29.32;47.82
26376;BME280;30544;42.196;24.336;2022-07-26T06:57:44;98756.34;;;29.78;47.13
26376;BME280;30544;42.196;24.336;2022-07-26T07:00:12;98757.00;;;29.68;47.53
26376;BME280;30544;42.196;24.336;2022-07-26T07:02:38;98765.91;;;29.13;48.43
26376;BME280;30544;42.196;24.336;2022-07-26T07:05:06;98751.72;;;29.70;47.12
26376;BME280;30544;42.196;24.336;2022-07-26T07:07:35;98755.13;;;29.52;46.81
26376;BME280;30544;42.196;24.336;2022-07-26T07:10:02;98754.13;;;30.61;45.58
26376;BME280;30544;42.196;24.336;2022-07-26T07:12:29;98753.66;;;30.22;45.73
26376;BME280;30544;42.196;24.336;2022-07-26T07:14:56;98747.03;;;30.85;44.88
26376;BME280;30544;42.196;24.336;2022-07-26T07:17:23;98747.84;;;30.86;44.65
26376;BME280;30544;42.196;24.336;2022-07-26T07:19:50;98762.34;;;29.99;46.25
26376;BME280;30544;42.196;24.336;2022-07-26T07:22:16;98758.47;;;30.14;45.96
26376;BME280;30544;42.196;24.336;2022-07-26T07:24:45;98755.56;;;29.81;46.57
26376;BME280;30544;42.196;24.336;2022-07-26T07:27:11;98756.16;;;30.23;45.81
26376;BME280;30544;42.196;24.336;2022-07-26T07:29:38;98749.75;;;30.37;46.38
26376;BME280;30544;42.196;24.336;2022-07-26T07:32:05;98751.84;;;29.50;47.14
26376;BME280;30544;42.196;24.336;2022-07-26T07:34:32;98755.69;;;30.55;46.70
26376;BME280;30544;42.196;24.336;2022-07-26T07:36:59;98757.31;;;30.19;46.43
26376;BME280;30544;42.196;24.336;2022-07-26T07:39:26;98753.44;;;30.38;46.40
26376;BME280;30544;42.196;24.336;2022-07-26T07:41:54;98759.13;;;30.68;46.03
26376;BME280;30544;42.196;24.336;2022-07-26T07:44:21;98751.69;;;29.96;46.46
26376;BME280;30544;42.196;24.336;2022-07-26T07:46:48;98757.78;;;30.99;45.24
26376;BME280;30544;42.196;24.336;2022-07-26T07:49:15;98747.47;;;31.31;43.51
26376;BME280;30544;42.196;24.336;2022-07-26T07:51:42;98752.81;;;31.98;44.29
26376;BME280;30544;42.196;24.336;2022-07-26T07:54:08;98748.06;;;31.58;42.91
26376;BME280;30544;42.196;24.336;2022-07-26T07:56:35;98751.06;;;30.80;44.06
26376;BME280;30544;42.196;24.336;2022-07-26T07:59:03;98744.31;;;31.47;43.19
26376;BME280;30544;42.196;24.336;2022-07-26T08:01:30;98732.66;;;31.22;43.83
26376;BME280;30544;42.196;24.336;2022-07-26T08:03:57;98737.44;;;30.67;44.14
26376;BME280;30544;42.196;24.336;2022-07-26T08:06:24;98729.00;;;30.81;44.60
26376;BME280;30544;42.196;24.336;2022-07-26T08:08:51;98738.81;;;31.86;43.29
26376;BME280;30544;42.196;24.336;2022-07-26T08:11:17;98735.53;;;31.84;42.88
26376;BME280;30544;42.196;24.336;2022-07-26T08:13:44;98726.91;;;31.77;42.99
26376;BME280;30544;42.196;24.336;2022-07-26T08:16:12;98716.44;;;32.13;42.02
26376;BME280;30544;42.196;24.336;2022-07-26T08:18:40;98715.19;;;32.11;41.70
26376;BME280;30544;42.196;24.336;2022-07-26T08:21:06;98722.44;;;31.83;42.50
26376;BME280;30544;42.196;24.336;2022-07-26T08:23:34;98720.28;;;31.11;43.64
26376;BME280;30544;42.196;24.336;2022-07-26T08:26:01;98712.91;;;32.63;41.12
26376;BME280;30544;42.196;24.336;2022-07-26T08:28:28;98713.78;;;32.91;41.01
26376;BME280;30544;42.196;24.336;2022-07-26T08:30:55;98711.47;;;32.03;42.26
26376;BME280;30544;42.196;24.336;2022-07-26T08:33:23;98707.44;;;31.42;42.73
26376;BME280;30544;42.196;24.336;2022-07-26T08:35:50;98706.00;;;31.73;42.86
26376;BME280;30544;42.196;24.336;2022-07-26T08:38:17;98710.56;;;31.78;42.30
26376;BME280;30544;42.196;24.336;2022-07-26T08:40:43;98705.44;;;32.26;42.75
26376;BME280;30544;42.196;24.336;2022-07-26T08:43:10;98696.56;;;33.02;40.70
26376;BME280;30544;42.196;24.336;2022-07-26T08:45:37;98698.22;;;33.35;39.39
26376;BME280;30544;42.196;24.336;2022-07-26T08:48:04;98700.66;;;33.40;39.78
26376;BME280;30544;42.196;24.336;2022-07-26T08:50:32;98692.47;;;32.96;40.84
26376;BME280;30544;42.196;24.336;2022-07-26T08:53:01;98697.75;;;32.73;40.14
26376;BME280;30544;42.196;24.336;2022-07-26T08:55:31;98696.06;;;32.43;41.46
26376;BME280;30544;42.196;24.336;2022-07-26T08:57:57;98689.91;;;32.41;42.29
26376;BME280;30544;42.196;24.336;2022-07-26T09:00:26;98695.28;;;32.60;40.95
26376;BME280;30544;42.196;24.336;2022-07-26T09:02:54;98696.38;;;32.13;40.64
26376;BME280;30544;42.196;24.336;2022-07-26T09:05:26;98696.91;;;32.54;40.14
26376;BME280;30544;42.196;24.336;2022-07-26T09:07:55;98685.91;;;32.99;40.04
26376;BME280;30544;42.196;24.336;2022-07-26T09:10:22;98685.47;;;33.47;39.28
26376;BME280;30544;42.196;24.336;2022-07-26T09:12:52;98685.06;;;33.27;40.54
26376;BME280;30544;42.196;24.336;2022-07-26T09:15:21;98680.97;;;33.17;42.22
26376;BME280;30544;42.196;24.336;2022-07-26T09:17:50;98677.28;;;33.10;40.43
26376;BME280;30544;42.196;24.336;2022-07-26T09:20:19;98678.47;;;32.48;41.08
26376;BME280;30544;42.196;24.336;2022-07-26T09:23:03;98673.44;;;32.24;41.46
26376;BME280;30544;42.196;24.336;2022-07-26T09:25:32;98665.75;;;33.42;41.56
26376;BME280;30544;42.196;24.336;2022-07-26T09:28:00;98661.69;;;33.29;39.43
26376;BME280;30544;42.196;24.336;2022-07-26T09:30:28;98659.50;;;33.79;39.15
26376;BME280;30544;42.196;24.336;2022-07-26T09:32:58;98666.81;;;34.05;39.52
26376;BME280;30544;42.196;24.336;2022-07-26T09:35:26;98668.56;;;33.77;40.42
26376;BME280;30544;42.196;24.336;2022-07-26T09:37:53;98658.81;;;33.43;40.18
26376;BME280;30544;42.196;24.336;2022-07-26T09:40:22;98662.09;;;33.02;40.68
26376;BME280;30544;42.196;24.336;2022-07-26T09:42:54;98663.19;;;33.94;40.15
26376;BME280;30544;42.196;24.336;2022-07-26T09:45:22;98652.69;;;34.35;40.54
26376;BME280;30544;42.196;24.336;2022-07-26T09:47:49;98656.47;;;34.18;39.40
26376;BME280;30544;42.196;24.336;2022-07-26T09:50:17;98655.47;;;34.50;38.32
26376;BME280;30544;42.196;24.336;2022-07-26T09:53:03;98648.81;;;33.83;38.99
26376;BME280;30544;42.196;24.336;2022-07-26T09:55:34;98646.72;;;33.98;39.04
26376;BME280;30544;42.196;24.336;2022-07-26T09:58:02;98644.47;;;34.30;38.02
26376;BME280;30544;42.196;24.336;2022-07-26T10:00:32;98644.69;;;33.91;38.04
26376;BME280;30544;42.196;24.336;2022-07-26T10:02:59;98638.88;;;34.02;37.87
26376;BME280;30544;42.196;24.336;2022-07-26T10:05:26;98636.19;;;34.47;37.43
26376;BME280;30544;42.196;24.336;2022-07-26T10:07:53;98635.47;;;34.87;37.10
26376;BME280;30544;42.196;24.336;2022-07-26T10:10:28;98635.09;;;34.85;38.11
26376;BME280;30544;42.196;24.336;2022-07-26T10:12:58;98634.00;;;34.65;37.64
26376;BME280;30544;42.196;24.336;2022-07-26T10:15:35;98630.84;;;35.01;37.11
26376;BME280;30544;42.196;24.336;2022-07-26T10:18:02;98627.69;;;34.22;36.42
26376;BME280;30544;42.196;24.336;2022-07-26T10:20:44;98611.66;;;34.80;38.10
26376;BME280;30544;42.196;24.336;2022-07-26T10:23:30;98617.66;;;35.44;36.80
26376;BME280;30544;42.196;24.336;2022-07-26T10:25:57;98608.97;;;35.48;35.67
26376;BME280;30544;42.196;24.336;2022-07-26T10:28:27;98605.97;;;35.17;36.79
26376;BME280;30544;42.196;24.336;2022-07-26T10:31:25;98609.03;;;35.41;35.32
26376;BME280;30544;42.196;24.336;2022-07-26T10:33:55;98610.28;;;34.43;36.22
26376;BME280;30544;42.196;24.336;2022-07-26T10:36:24;98606.06;;;35.07;35.84
26376;BME280;30544;42.196;24.336;2022-07-26T10:41:43;98594.63;;;35.41;35.82
26376;BME280;30544;42.196;24.336;2022-07-26T10:44:14;98599.72;;;35.64;35.78
26376;BME280;30544;42.196;24.336;2022-07-26T10:47:09;98597.34;;;34.69;36.38
26376;BME280;30544;42.196;24.336;2022-07-26T10:49:38;98571.38;;;35.21;35.74
26376;BME280;30544;42.196;24.336;2022-07-26T10:52:09;98589.66;;;35.79;34.18
26376;BME280;30544;42.196;24.336;2022-07-26T10:57:40;98580.59;;;35.43;34.45
26376;BME280;30544;42.196;24.336;2022-07-26T11:00:13;98578.81;;;35.56;33.18
26376;BME280;30544;42.196;24.336;2022-07-26T11:02:41;98569.41;;;35.14;33.88
26376;BME280;30544;42.196;24.336;2022-07-26T11:05:11;98571.78;;;35.57;32.91
26376;BME280;30544;42.196;24.336;2022-07-26T11:08:00;98564.50;;;36.10;31.61
26376;BME280;30544;42.196;24.336;2022-07-26T11:10:31;98554.78;;;35.32;30.75
26376;BME280;30544;42.196;24.336;2022-07-26T11:13:06;98551.88;;;34.50;32.63
26376;BME280;30544;42.196;24.336;2022-07-26T11:15:37;98545.69;;;35.00;32.57
26376;BME280;30544;42.196;24.336;2022-07-26T11:18:22;98539.09;;;36.01;33.00
26376;BME280;30544;42.196;24.336;2022-07-26T11:20:53;98544.75;;;36.08;31.32
26376;BME280;30544;42.196;24.336;2022-07-26T11:23:26;98537.34;;;36.07;31.76
26376;BME280;30544;42.196;24.336;2022-07-26T11:26:10;98534.41;;;36.38;29.47
26376;BME280;30544;42.196;24.336;2022-07-26T11:28:44;98525.72;;;36.65;29.73
26376;BME280;30544;42.196;24.336;2022-07-26T11:31:13;98517.75;;;36.49;28.57
26376;BME280;30544;42.196;24.336;2022-07-26T11:33:42;98521.38;;;36.26;27.42
26376;BME280;30544;42.196;24.336;2022-07-26T11:36:11;98518.72;;;36.39;28.10
26376;BME280;30544;42.196;24.336;2022-07-26T11:38:46;98519.16;;;36.10;28.60
26376;BME280;30544;42.196;24.336;2022-07-26T11:41:13;98510.66;;;36.27;30.65
26376;BME280;30544;42.196;24.336;2022-07-26T11:43:41;98499.06;;;36.30;29.67
26376;BME280;30544;42.196;24.336;2022-07-26T11:46:08;98505.63;;;36.34;29.20
26376;BME280;30544;42.196;24.336;2022-07-26T11:48:37;98511.22;;;36.18;28.30
26376;BME280;30544;42.196;24.336;2022-07-26T11:51:11;98497.69;;;36.62;29.15
26376;BME280;30544;42.196;24.336;2022-07-26T11:53:38;98491.28;;;36.27;29.37
26376;BME280;30544;42.196;24.336;2022-07-26T11:56:10;98479.72;;;36.27;30.09
26376;BME280;30544;42.196;24.336;2022-07-26T11:58:38;98493.19;;;36.37;30.22
26376;BME280;30544;42.196;24.336;2022-07-26T12:01:07;98491.94;;;36.62;29.44
26376;BME280;30544;42.196;24.336;2022-07-26T12:03:35;98476.19;;;36.66;28.95
26376;BME280;30544;42.196;24.336;2022-07-26T12:06:05;98491.00;;;36.68;29.21
26376;BME280;30544;42.196;24.336;2022-07-26T12:08:39;98482.13;;;37.02;29.07
26376;BME280;30544;42.196;24.336;2022-07-26T12:11:08;98478.75;;;37.27;28.06
26376;BME280;30544;42.196;24.336;2022-07-26T12:13:55;98465.88;;;36.89;28.42
26376;BME280;30544;42.196;24.336;2022-07-26T12:16:41;98462.63;;;37.07;29.70
26376;BME280;30544;42.196;24.336;2022-07-26T12:19:25;98464.41;;;36.81;29.28
26376;BME280;30544;42.196;24.336;2022-07-26T12:21:54;98450.34;;;36.83;29.10
26376;BME280;30544;42.196;24.336;2022-07-26T12:24:42;98456.56;;;37.01;28.92
26376;BME280;30544;42.196;24.336;2022-07-26T12:27:13;98450.78;;;36.81;28.64
26376;BME280;30544;42.196;24.336;2022-07-26T12:29:41;98439.81;;;36.49;29.43
26376;BME280;30544;42.196;24.336;2022-07-26T12:32:12;98440.56;;;37.16;28.64
26376;BME280;30544;42.196;24.336;2022-07-26T12:34:42;98429.75;;;37.20;29.50
26376;BME280;30544;42.196;24.336;2022-07-26T12:37:19;98433.09;;;37.39;28.47
26376;BME280;30544;42.196;24.336;2022-07-26T12:40:08;98435.97;;;37.39;28.08
26376;BME280;30544;42.196;24.336;2022-07-26T12:42:36;98434.25;;;37.41;27.61
26376;BME280;30544;42.196;24.336;2022-07-26T12:45:05;98426.22;;;37.32;28.75
26376;BME280;30544;42.196;24.336;2022-07-26T12:47:33;98429.59;;;37.27;27.89
26376;BME280;30544;42.196;24.336;2022-07-26T12:50:03;98428.06;;;37.59;28.27
26376;BME280;30544;42.196;24.336;2022-07-26T12:52:31;98423.38;;;37.49;27.22
26376;BME280;30544;42.196;24.336;2022-07-26T12:54:59;98422.78;;;37.18;27.80
26376;BME280;30544;42.196;24.336;2022-07-26T12:57:26;98420.66;;;37.58;26.84
26376;BME280;30544;42.196;24.336;2022-07-26T12:59:53;98418.41;;;37.85;27.21
26376;BME280;30544;42.196;24.336;2022-07-26T13:02:21;98418.41;;;37.10;27.79
26376;BME280;30544;42.196;24.336;2022-07-26T13:04:48;98420.44;;;37.69;26.83